createdAt,value
2022-10-13T00:01:16.457Z,10.20
2022-10-13T00:02:48.427Z,10.10
2022-10-13T00:04:20.562Z,10.10
2022-10-13T00:05:52.830Z,10.06
2022-10-13T00:07:24.796Z,10.02
2022-10-13T00:08:57.001Z,10.01
2022-10-13T00:10:28.995Z,9.99
2022-10-13T00:12:00.980Z,9.95
2022-10-13T00:13:32.972Z,9.90
2022-10-13T00:15:07.260Z,9.91
2022-10-13T00:16:39.931Z,9.85
2022-10-13T00:18:12.478Z,9.82
2022-10-13T00:19:44.526Z,9.78
2022-10-13T00:21:19.920Z,9.82
2022-10-13T00:22:51.927Z,9.79
2022-10-13T00:24:23.914Z,9.80
2022-10-13T00:25:55.914Z,9.81
2022-10-13T00:27:28.146Z,9.80
2022-10-13T00:29:00.287Z,9.78
2022-10-13T00:30:35.574Z,9.83
2022-10-13T00:32:07.706Z,9.76
2022-10-13T00:33:39.685Z,9.76
2022-10-13T00:35:11.646Z,9.76
2022-10-13T00:36:43.666Z,9.79
2022-10-13T00:38:17.609Z,9.77
2022-10-13T00:39:49.634Z,9.77
2022-10-13T00:41:22.103Z,9.78
2022-10-13T00:42:54.641Z,9.78
2022-10-13T00:45:00.263Z,9.82
2022-10-13T00:46:36.485Z,9.78
2022-10-13T00:48:08.455Z,9.72
2022-10-13T00:49:40.448Z,9.67
2022-10-13T00:51:14.494Z,9.64
2022-10-13T00:52:47.912Z,9.61
2022-10-13T00:54:21.307Z,9.59
2022-10-13T00:55:53.451Z,9.47
2022-10-13T00:57:25.491Z,9.46
2022-10-13T00:58:57.837Z,9.43
2022-10-13T01:00:30.835Z,9.42
2022-10-13T01:02:03.179Z,9.42
2022-10-13T01:03:35.485Z,9.43
2022-10-13T01:05:08.030Z,9.46
2022-10-13T01:06:40.839Z,9.46
2022-10-13T01:08:15.248Z,9.44
2022-10-13T01:09:47.574Z,9.41
2022-10-13T01:11:25.681Z,9.41
2022-10-13T01:13:22.428Z,9.49
2022-10-13T01:15:23.258Z,9.53
2022-10-13T01:17:32.672Z,9.51
2022-10-13T01:21:01.037Z,9.47
2022-10-13T01:22:53.766Z,9.42
2022-10-13T01:24:34.195Z,9.44
2022-10-13T01:26:24.177Z,9.35
2022-10-13T01:28:34.304Z,9.37
2022-10-13T01:30:19.690Z,9.29
2022-10-13T01:32:12.898Z,9.29
2022-10-13T01:34:00.362Z,9.25
2022-10-13T01:35:32.740Z,9.19
2022-10-13T01:37:12.020Z,9.21
2022-10-13T01:38:57.472Z,9.17
2022-10-13T01:40:33.157Z,9.14
2022-10-13T01:42:27.890Z,9.11
2022-10-13T01:44:16.565Z,9.14
2022-10-13T01:46:16.269Z,9.14
2022-10-13T01:47:48.799Z,9.14
2022-10-13T01:49:24.293Z,9.16
2022-10-13T01:50:59.031Z,9.11
2022-10-13T01:52:35.090Z,9.14
2022-10-13T01:54:07.444Z,9.08
2022-10-13T01:55:49.893Z,9.13
2022-10-13T01:57:47.762Z,9.14
2022-10-13T01:59:20.083Z,9.10
2022-10-13T02:01:20.778Z,9.16
2022-10-13T02:03:08.110Z,9.14
2022-10-13T02:04:49.028Z,9.16
2022-10-13T02:06:35.106Z,9.10
2022-10-13T02:08:20.257Z,9.18
2022-10-13T02:09:59.818Z,9.15
2022-10-13T02:11:32.046Z,9.14
2022-10-13T02:13:05.645Z,9.17
2022-10-13T02:14:39.374Z,9.15
2022-10-13T02:16:11.609Z,9.11
2022-10-13T02:17:45.939Z,9.11
2022-10-13T02:19:18.836Z,9.06
2022-10-13T02:20:51.011Z,9.05
2022-10-13T02:22:26.534Z,9.02
2022-10-13T02:23:58.562Z,8.95
2022-10-13T02:25:31.334Z,8.92
2022-10-13T02:27:06.200Z,8.91
2022-10-13T02:28:38.588Z,8.91
2022-10-13T02:30:11.241Z,8.89
2022-10-13T02:31:44.473Z,8.93
2022-10-13T02:33:16.958Z,8.89
2022-10-13T02:34:49.808Z,8.90
2022-10-13T02:36:21.783Z,8.91
2022-10-13T02:37:53.706Z,8.89
2022-10-13T02:39:26.078Z,8.90
2022-10-13T02:40:58.235Z,8.89
2022-10-13T02:42:30.192Z,8.89
2022-10-13T02:44:02.176Z,8.90
2022-10-13T02:45:34.218Z,8.87
2022-10-13T02:47:06.271Z,8.89
2022-10-13T02:48:38.224Z,8.88
2022-10-13T02:50:10.682Z,8.89
2022-10-13T02:51:42.632Z,8.85
2022-10-13T02:53:14.617Z,8.80
2022-10-13T02:54:46.627Z,8.75
2022-10-13T02:56:19.307Z,8.74
2022-10-13T02:57:51.241Z,8.76
2022-10-13T02:59:23.203Z,8.78
2022-10-13T03:00:55.362Z,8.78
2022-10-13T03:02:28.455Z,8.77
2022-10-13T03:04:00.510Z,8.71
2022-10-13T03:05:32.768Z,8.70
2022-10-13T03:07:04.826Z,8.68
2022-10-13T03:08:37.058Z,8.66
2022-10-13T03:10:09.337Z,8.62
2022-10-13T03:11:41.477Z,8.59
2022-10-13T03:13:13.469Z,8.59
2022-10-13T03:14:45.525Z,8.60
2022-10-13T03:16:20.330Z,8.63
2022-10-13T03:19:29.374Z,8.64
2022-10-13T03:21:04.085Z,8.67
2022-10-13T03:22:36.145Z,8.67
2022-10-13T03:24:09.056Z,8.67
2022-10-13T03:25:41.211Z,8.66
2022-10-13T03:27:16.174Z,8.63
2022-10-13T03:28:51.753Z,8.65
2022-10-13T03:30:23.866Z,8.60
2022-10-13T03:31:55.866Z,8.59
2022-10-13T03:33:27.951Z,8.59
2022-10-13T03:35:00.589Z,8.59
2022-10-13T03:36:32.570Z,8.62
2022-10-13T03:38:04.616Z,8.60
2022-10-13T03:39:36.650Z,8.59
2022-10-13T03:41:14.256Z,8.59
2022-10-13T03:42:46.271Z,8.55
2022-10-13T03:44:18.379Z,8.52
2022-10-13T03:46:00.643Z,8.56
2022-10-13T03:47:33.061Z,8.53
2022-10-13T03:49:05.165Z,8.55
2022-10-13T03:50:38.300Z,8.55
2022-10-13T03:52:10.441Z,8.51
2022-10-13T03:53:42.513Z,8.48
2022-10-13T03:55:14.514Z,8.45
2022-10-13T03:56:46.499Z,8.46
2022-10-13T03:58:18.940Z,8.46
2022-10-13T03:59:50.907Z,8.44
2022-10-13T04:01:24.964Z,8.42
2022-10-13T04:02:57.011Z,8.39
2022-10-13T04:04:29.309Z,8.36
2022-10-13T04:06:02.928Z,8.38
2022-10-13T04:07:35.197Z,8.35
2022-10-13T04:09:07.259Z,8.30
2022-10-13T04:10:39.527Z,8.30
2022-10-13T04:12:15.083Z,8.31
2022-10-13T04:13:49.131Z,8.25
2022-10-13T04:15:21.081Z,8.23
2022-10-13T04:16:53.411Z,8.23
2022-10-13T04:18:25.546Z,8.21
2022-10-13T04:19:57.590Z,8.19
2022-10-13T04:21:31.288Z,8.24
2022-10-13T04:23:03.616Z,8.23
2022-10-13T04:24:35.731Z,8.24
2022-10-13T04:26:14.584Z,8.23
2022-10-13T04:27:48.404Z,8.21
2022-10-13T04:29:20.924Z,8.23
2022-10-13T04:30:53.288Z,8.23
2022-10-13T04:32:25.603Z,8.24
2022-10-13T04:33:57.787Z,8.23
2022-10-13T04:35:30.147Z,8.22
2022-10-13T04:37:02.664Z,8.21
2022-10-13T04:38:34.983Z,8.20
2022-10-13T04:40:07.619Z,8.18
2022-10-13T04:41:40.207Z,8.12
2022-10-13T04:43:12.202Z,8.12
2022-10-13T04:44:44.351Z,8.14
2022-10-13T04:46:19.816Z,8.16
2022-10-13T04:47:51.909Z,8.13
2022-10-13T04:49:24.947Z,8.17
2022-10-13T04:51:06.359Z,8.25
2022-10-13T04:52:38.489Z,8.21
2022-10-13T04:54:10.960Z,8.21
2022-10-13T04:55:42.990Z,8.19
2022-10-13T04:57:15.082Z,8.19
2022-10-13T04:58:47.251Z,8.16
2022-10-13T05:00:19.306Z,8.14
2022-10-13T05:01:51.337Z,8.14
2022-10-13T05:03:24.487Z,8.18
2022-10-13T05:04:56.544Z,8.22
2022-10-13T05:06:32.473Z,8.29
2022-10-13T05:08:04.789Z,8.30
2022-10-13T05:09:36.782Z,8.36
2022-10-13T05:11:08.754Z,8.41
2022-10-13T05:12:40.877Z,8.47
2022-10-13T05:14:13.002Z,8.51
2022-10-13T05:15:45.037Z,8.55
2022-10-13T05:17:17.330Z,8.57
2022-10-13T05:18:50.591Z,8.56
2022-10-13T05:20:23.151Z,8.57
2022-10-13T05:21:55.213Z,8.57
2022-10-13T05:23:27.288Z,8.58
2022-10-13T05:24:59.340Z,8.61
2022-10-13T05:26:32.392Z,8.60
2022-10-13T05:28:06.072Z,8.64
2022-10-13T05:29:38.437Z,8.63
2022-10-13T05:31:12.433Z,8.66
2022-10-13T05:32:44.419Z,8.70
2022-10-13T05:34:16.743Z,8.73
2022-10-13T05:35:48.906Z,8.78
2022-10-13T05:37:22.793Z,8.81
2022-10-13T05:38:57.176Z,8.85
2022-10-13T05:40:29.634Z,8.92
2022-10-13T05:42:01.754Z,8.95
2022-10-13T05:43:34.094Z,9.01
2022-10-13T05:45:11.216Z,9.07
2022-10-13T05:46:43.468Z,9.08
2022-10-13T05:48:15.535Z,9.11
2022-10-13T05:49:47.582Z,9.17
2022-10-13T05:51:37.770Z,9.24
2022-10-13T05:53:09.757Z,9.25
2022-10-13T05:54:49.410Z,9.36
2022-10-13T05:56:26.612Z,9.38
2022-10-13T05:57:58.717Z,9.39
2022-10-13T05:59:33.148Z,9.42
2022-10-13T06:01:09.334Z,9.48
2022-10-13T06:02:51.828Z,9.57
2022-10-13T06:04:38.441Z,9.63
2022-10-13T06:06:11.242Z,9.68
2022-10-13T06:07:44.465Z,9.73
2022-10-13T06:09:17.212Z,9.80
2022-10-13T06:10:49.308Z,9.86
2022-10-13T06:12:21.813Z,9.91
2022-10-13T06:13:54.030Z,9.99
2022-10-13T06:15:28.377Z,10.06
2022-10-13T06:17:00.641Z,10.13
2022-10-13T06:18:32.756Z,10.21
2022-10-13T06:20:06.656Z,10.28
2022-10-13T06:21:38.657Z,10.34
2022-10-13T06:23:11.091Z,10.40
2022-10-13T06:24:43.148Z,10.46
2022-10-13T06:26:15.269Z,10.54
2022-10-13T06:27:47.277Z,10.61
2022-10-13T06:30:57.567Z,10.68
2022-10-13T06:32:29.551Z,10.73
2022-10-13T06:34:01.925Z,10.78
2022-10-13T06:35:34.283Z,10.85
2022-10-13T06:37:07.151Z,10.91
2022-10-13T06:38:39.262Z,10.98
2022-10-13T06:40:11.776Z,11.04
2022-10-13T06:41:43.774Z,11.12
2022-10-13T06:43:15.874Z,11.18
2022-10-13T06:44:47.956Z,11.27
2022-10-13T06:46:20.471Z,11.32
2022-10-13T06:47:55.749Z,11.42
2022-10-13T06:49:27.887Z,11.46
2022-10-13T06:51:08.062Z,11.53
2022-10-13T06:52:40.258Z,11.58
2022-10-13T06:54:12.301Z,11.64
2022-10-13T06:55:46.212Z,11.70
2022-10-13T06:57:21.191Z,11.77
2022-10-13T06:58:53.426Z,11.84
2022-10-13T07:00:25.565Z,11.89
2022-10-13T07:01:57.752Z,11.95
2022-10-13T07:05:02.605Z,12.08
2022-10-13T07:06:34.672Z,12.19
2022-10-13T07:08:06.709Z,12.25
2022-10-13T07:09:38.826Z,12.31
2022-10-13T07:11:16.623Z,12.38
2022-10-13T07:12:48.805Z,12.41
2022-10-13T07:14:20.897Z,12.53
2022-10-13T07:15:52.871Z,12.60
2022-10-13T07:17:24.982Z,12.70
2022-10-13T07:18:57.107Z,12.79
2022-10-13T07:20:29.257Z,12.86
2022-10-13T07:22:01.252Z,12.96
2022-10-13T07:23:33.562Z,13.02
2022-10-13T07:25:06.882Z,13.12
2022-10-13T07:26:39.443Z,13.20
2022-10-13T07:28:11.609Z,13.25
2022-10-13T07:29:44.151Z,13.31
2022-10-13T07:31:19.125Z,13.41
2022-10-13T07:32:51.416Z,13.46
2022-10-13T07:34:23.910Z,13.53
2022-10-13T07:35:59.807Z,13.63
2022-10-13T07:37:32.144Z,13.66
2022-10-13T07:39:04.629Z,13.73
2022-10-13T07:40:36.949Z,13.78
2022-10-13T07:42:09.079Z,13.85
2022-10-13T07:43:41.869Z,13.93
2022-10-13T07:45:14.077Z,13.99
2022-10-13T07:46:46.189Z,14.06
2022-10-13T07:48:18.216Z,14.12
2022-10-13T07:51:29.305Z,14.25
2022-10-13T07:53:01.273Z,14.31
2022-10-13T13:26:15.745Z,20.76
2022-10-13T13:27:48.190Z,20.71
2022-10-13T13:29:20.537Z,20.68
2022-10-13T13:30:52.835Z,20.68
2022-10-13T13:32:27.780Z,20.69
2022-10-13T13:34:00.102Z,20.63
2022-10-13T13:35:35.695Z,20.59
2022-10-13T13:37:24.831Z,20.67
2022-10-13T13:38:57.150Z,20.67
2022-10-13T13:40:29.749Z,20.67
2022-10-13T13:42:02.016Z,20.72
2022-10-13T13:43:34.351Z,20.77
2022-10-13T13:45:07.422Z,20.74
2022-10-13T13:46:40.106Z,20.73
2022-10-13T13:48:13.535Z,20.76
2022-10-13T13:49:46.585Z,20.74
2022-10-13T13:51:18.971Z,20.63
2022-10-13T13:52:51.266Z,20.58
2022-10-13T13:54:24.441Z,20.55
2022-10-13T13:55:56.859Z,20.48
2022-10-13T13:57:29.161Z,20.42
2022-10-13T13:59:01.210Z,20.34
2022-10-13T14:00:33.576Z,20.27
2022-10-13T14:02:06.976Z,20.24
2022-10-13T14:03:39.756Z,20.20
2022-10-13T14:05:12.930Z,20.15
2022-10-13T14:06:45.439Z,20.14
2022-10-13T14:08:17.825Z,20.13
2022-10-13T14:11:23.223Z,20.10
2022-10-13T14:12:55.615Z,20.16
2022-10-13T14:14:27.865Z,20.16
2022-10-13T14:16:01.071Z,20.19
2022-10-13T14:17:33.211Z,20.21
2022-10-13T14:19:05.526Z,20.21
2022-10-13T14:20:42.075Z,20.26
2022-10-13T14:22:14.376Z,20.19
2022-10-13T14:23:47.558Z,20.15
2022-10-13T14:25:20.037Z,20.14
2022-10-13T14:26:52.276Z,20.13
2022-10-13T14:28:24.750Z,20.07
2022-10-13T14:29:57.214Z,20.08
2022-10-13T14:31:29.542Z,20.02
2022-10-13T14:33:02.517Z,19.96
2022-10-13T14:34:34.926Z,19.89
2022-10-13T14:36:08.596Z,19.88
2022-10-13T14:37:40.815Z,19.85
2022-10-13T14:39:13.176Z,19.81
2022-10-13T14:40:45.402Z,19.73
2022-10-13T14:42:17.430Z,19.71
2022-10-13T14:43:53.685Z,19.70
2022-10-13T14:45:26.167Z,19.65
2022-10-13T14:46:58.417Z,19.60
2022-10-13T14:48:32.182Z,19.61
2022-10-13T14:50:04.711Z,19.54
2022-10-13T14:51:36.854Z,19.52
2022-10-13T14:53:11.936Z,19.49
2022-10-13T14:54:45.171Z,19.48
2022-10-13T14:56:26.230Z,19.48
2022-10-13T14:57:58.491Z,19.37
2022-10-13T14:59:31.256Z,19.33
2022-10-13T15:01:07.405Z,19.34
2022-10-13T15:02:39.713Z,19.28
2022-10-13T15:04:12.046Z,19.18
2022-10-13T15:05:44.262Z,19.17
2022-10-13T15:07:16.557Z,19.13
2022-10-13T15:08:49.362Z,19.10
2022-10-13T15:10:21.811Z,19.06
2022-10-13T15:11:54.096Z,19.00
2022-10-13T15:13:26.550Z,18.96
2022-10-13T15:14:58.866Z,18.92
2022-10-13T15:16:37.226Z,18.90
2022-10-13T15:18:09.614Z,18.81
2022-10-13T15:19:42.026Z,18.75
2022-10-13T15:21:14.828Z,18.71
2022-10-13T15:22:48.375Z,18.67
2022-10-13T15:24:21.861Z,18.58
2022-10-13T15:25:57.004Z,18.55
2022-10-13T15:27:29.281Z,18.47
2022-10-13T15:29:01.727Z,18.41
2022-10-13T15:30:34.598Z,18.35
2022-10-13T15:32:12.392Z,18.30
2022-10-13T15:33:46.461Z,18.23
2022-10-13T15:35:18.744Z,18.15
2022-10-13T15:36:51.090Z,18.05
2022-10-13T15:38:23.450Z,18.03
2022-10-13T15:39:57.561Z,17.97
2022-10-13T15:41:30.255Z,17.92
2022-10-13T15:43:02.656Z,17.87
2022-10-13T15:44:57.472Z,17.83
2022-10-13T15:46:28.962Z,17.78
2022-10-13T15:48:04.186Z,17.74
2022-10-13T15:49:40.029Z,17.69
2022-10-13T15:51:22.911Z,17.65
2022-10-13T15:52:55.224Z,17.56
2022-10-13T15:54:27.361Z,17.51
2022-10-13T15:56:02.807Z,17.49
2022-10-13T15:57:34.912Z,17.41
2022-10-13T15:59:07.504Z,17.34
2022-10-13T16:00:40.602Z,17.31
2022-10-13T16:02:12.910Z,17.28
2022-10-13T16:03:45.218Z,17.27
2022-10-13T16:05:18.627Z,17.24
2022-10-13T16:06:50.974Z,17.19
2022-10-13T16:08:23.452Z,17.15
2022-10-13T16:09:55.816Z,17.08
2022-10-13T16:11:28.242Z,17.05
2022-10-13T16:13:00.482Z,17.02
2022-10-13T16:14:32.758Z,16.99
2022-10-13T16:16:04.872Z,16.93
2022-10-13T16:17:37.890Z,16.92
2022-10-13T16:19:10.189Z,16.86
2022-10-13T16:20:45.686Z,16.79
2022-10-13T16:22:18.237Z,16.70
2022-10-13T16:23:50.467Z,16.64
2022-10-13T16:25:22.485Z,16.57
2022-10-13T16:26:54.843Z,16.50
2022-10-13T16:28:27.276Z,16.40
2022-10-13T16:29:59.713Z,16.30
2022-10-13T16:31:32.218Z,16.26
2022-10-13T16:33:04.581Z,16.19
2022-10-13T16:34:36.816Z,16.11
2022-10-13T16:36:11.770Z,15.98
2022-10-13T16:37:44.514Z,15.88
2022-10-13T16:39:16.861Z,15.82
2022-10-13T16:40:49.164Z,15.74
2022-10-13T16:42:21.482Z,15.68
2022-10-13T16:43:54.179Z,15.60
2022-10-13T16:45:47.939Z,15.54
2022-10-13T16:47:19.058Z,15.47
2022-10-13T16:48:51.401Z,15.43
2022-10-13T16:50:24.069Z,15.37
2022-10-13T16:51:56.310Z,15.35
2022-10-13T16:53:28.674Z,15.28
2022-10-13T16:55:00.965Z,15.16
2022-10-13T16:56:33.660Z,15.08
2022-10-13T16:58:05.955Z,14.99
2022-10-13T16:59:38.290Z,14.96
2022-10-13T17:01:11.394Z,14.91
2022-10-13T17:02:43.807Z,14.84
2022-10-13T17:04:19.790Z,14.80
2022-10-13T17:05:54.414Z,14.68
2022-10-13T17:07:26.649Z,14.59
2022-10-13T17:09:01.120Z,14.56
2022-10-13T17:10:34.852Z,14.48
2022-10-13T17:12:07.924Z,14.43
2022-10-13T17:13:40.209Z,14.34
2022-10-13T17:15:12.638Z,14.30
2022-10-13T17:16:45.585Z,14.27
2022-10-13T17:18:18.165Z,14.22
2022-10-13T17:19:50.611Z,14.16
2022-10-13T17:21:22.924Z,14.14
2022-10-13T17:22:55.262Z,14.13
2022-10-13T17:24:27.854Z,14.10
2022-10-13T17:26:05.471Z,14.09
2022-10-13T17:27:38.046Z,14.03
2022-10-13T17:29:10.385Z,13.99
2022-10-13T17:30:42.851Z,13.97
2022-10-13T17:32:15.146Z,13.96
2022-10-13T17:33:48.712Z,13.93
2022-10-13T17:35:21.068Z,13.84
2022-10-13T17:36:53.508Z,13.78
2022-10-13T17:39:58.795Z,13.65
2022-10-13T17:41:31.213Z,13.61
2022-10-13T17:43:03.615Z,13.57
2022-10-13T17:44:36.132Z,13.48
2022-10-13T17:46:37.880Z,13.47
2022-10-13T17:48:14.292Z,13.37
2022-10-13T17:49:46.706Z,13.32
2022-10-13T17:51:22.958Z,13.29
2022-10-13T17:52:55.529Z,13.22
2022-10-13T17:54:28.049Z,13.20
2022-10-13T17:56:02.038Z,13.24
2022-10-13T17:57:34.319Z,13.23
2022-10-13T17:59:06.834Z,13.21
2022-10-13T18:01:07.601Z,13.16
2022-10-13T18:02:31.576Z,13.14
2022-10-13T18:04:11.450Z,13.14
2022-10-13T18:05:43.970Z,13.06
2022-10-13T18:07:16.211Z,13.01
2022-10-13T18:08:48.813Z,12.99
2022-10-13T18:10:21.205Z,12.94
2022-10-13T18:11:54.837Z,12.94
2022-10-13T18:13:27.156Z,12.85
2022-10-13T18:14:59.532Z,12.84
2022-10-13T18:16:35.596Z,12.81
2022-10-13T18:18:07.942Z,12.75
2022-10-13T18:19:40.603Z,12.75
2022-10-13T18:21:17.306Z,12.76
2022-10-13T18:22:49.710Z,12.70
2022-10-13T18:24:22.094Z,12.70
2022-10-13T18:25:54.428Z,12.68
2022-10-13T18:27:26.641Z,12.67
2022-10-13T18:28:59.285Z,12.64
2022-10-13T18:30:32.604Z,12.63
2022-10-13T18:32:05.152Z,12.60
2022-10-13T18:33:37.619Z,12.56
2022-10-13T18:35:10.211Z,12.54
2022-10-13T18:36:45.207Z,12.52
2022-10-13T18:38:20.234Z,12.47
2022-10-13T18:39:52.587Z,12.39
2022-10-13T18:41:25.189Z,12.38
2022-10-13T18:44:30.098Z,12.29
2022-10-13T18:46:03.086Z,12.28
2022-10-13T18:47:35.395Z,12.21
2022-10-13T18:49:11.175Z,12.20
2022-10-13T18:50:43.517Z,12.13
2022-10-13T18:52:15.839Z,12.11
2022-10-13T18:53:51.007Z,12.11
2022-10-13T18:55:23.334Z,12.06
2022-10-13T18:56:55.724Z,12.04
2022-10-13T18:58:28.013Z,12.03
2022-10-13T19:00:00.233Z,11.98
2022-10-13T19:01:33.281Z,11.93
2022-10-13T19:03:05.387Z,11.86
2022-10-13T19:04:37.733Z,11.83
2022-10-13T19:06:12.814Z,11.82
2022-10-13T19:07:44.928Z,11.76
2022-10-13T19:09:17.858Z,11.72
2022-10-13T19:10:50.934Z,11.70
2022-10-13T19:12:23.223Z,11.68
2022-10-13T19:13:55.384Z,11.65
2022-10-13T19:15:27.480Z,11.63
2022-10-13T19:17:02.159Z,11.59
2022-10-13T19:18:34.972Z,11.56
2022-10-13T19:20:07.341Z,11.54
2022-10-13T19:21:39.939Z,11.55
2022-10-13T19:23:16.315Z,11.55
2022-10-13T19:24:48.699Z,11.50
2022-10-13T19:26:24.877Z,11.50
2022-10-13T19:27:57.235Z,11.45
2022-10-13T19:29:31.115Z,11.46
2022-10-13T19:31:30.295Z,11.45
2022-10-13T19:33:02.844Z,11.41
2022-10-13T19:34:35.284Z,11.39
2022-10-13T19:36:07.774Z,11.37
2022-10-13T19:37:41.139Z,11.35
2022-10-13T19:39:22.286Z,11.38
2022-10-13T19:40:54.628Z,11.36
2022-10-13T19:42:27.034Z,11.37
2022-10-13T19:43:59.935Z,11.37
2022-10-13T19:45:32.517Z,11.34
2022-10-13T19:47:04.844Z,11.29
2022-10-13T19:48:36.987Z,11.26
2022-10-13T19:50:09.465Z,11.22
2022-10-13T19:51:45.033Z,11.17
2022-10-13T19:53:17.561Z,11.12
2022-10-13T19:54:52.733Z,11.08
2022-10-13T19:56:32.045Z,11.14
2022-10-13T19:58:04.501Z,11.11
2022-10-13T19:59:37.738Z,11.10
2022-10-13T20:01:09.935Z,11.06
2022-10-13T20:02:42.396Z,11.01
2022-10-13T20:04:16.322Z,10.96
2022-10-13T20:05:48.276Z,10.91
2022-10-13T20:07:20.814Z,10.85
2022-10-13T20:08:53.075Z,10.80
2022-10-13T20:10:25.410Z,10.76
2022-10-13T20:11:57.465Z,10.71
2022-10-13T20:13:29.569Z,10.69
2022-10-13T20:15:01.582Z,10.70
2022-10-13T20:16:33.710Z,10.71
2022-10-13T20:18:06.965Z,10.69
2022-10-13T20:19:39.017Z,10.69
2022-10-13T20:21:12.621Z,10.67
2022-10-13T20:22:44.659Z,10.67
2022-10-13T20:24:16.963Z,10.64
2022-10-13T20:25:49.112Z,10.63
2022-10-13T20:27:21.356Z,10.58
2022-10-13T20:28:54.607Z,10.58
2022-10-13T20:30:26.873Z,10.55
2022-10-13T20:31:58.951Z,10.51
2022-10-13T20:33:34.657Z,10.50
2022-10-13T20:35:07.046Z,10.51
2022-10-13T20:36:39.481Z,10.50
2022-10-13T20:38:11.678Z,10.49
2022-10-13T20:39:44.066Z,10.45
2022-10-13T20:41:27.254Z,10.43
2022-10-13T20:42:59.648Z,10.40
2022-10-13T20:44:31.709Z,10.38
2022-10-13T20:46:06.179Z,10.38
2022-10-13T20:47:38.251Z,10.30
2022-10-13T20:49:11.863Z,10.30
2022-10-13T20:50:44.806Z,10.27
2022-10-13T20:52:16.890Z,10.25
2022-10-13T20:53:49.488Z,10.22
2022-10-13T20:55:21.506Z,10.18
2022-10-13T20:56:53.530Z,10.13
2022-10-13T20:58:29.847Z,10.18
2022-10-13T21:00:02.016Z,10.16
2022-10-13T21:01:34.821Z,10.18
2022-10-13T21:03:06.925Z,10.15
2022-10-13T21:04:39.049Z,10.13
2022-10-13T21:06:13.363Z,10.13
2022-10-13T21:07:45.421Z,10.05
2022-10-13T21:09:17.458Z,10.02
2022-10-13T21:10:50.773Z,9.99
2022-10-13T21:12:22.912Z,10.01
2022-10-13T21:13:55.086Z,9.99
2022-10-13T21:15:27.135Z,9.98
2022-10-13T21:16:59.334Z,9.96
2022-10-13T21:18:31.359Z,9.91
2022-10-13T21:20:04.162Z,9.91
2022-10-13T21:21:40.852Z,9.93
2022-10-13T21:23:12.900Z,9.91
2022-10-13T21:24:45.014Z,9.92
2022-10-13T21:26:21.851Z,9.97
2022-10-13T21:27:56.739Z,9.95
2022-10-13T21:29:28.902Z,9.91
2022-10-13T21:31:03.332Z,9.90
2022-10-13T21:32:35.374Z,9.86
2022-10-13T21:34:07.457Z,9.81
2022-10-13T21:35:39.911Z,9.80
2022-10-13T21:37:11.885Z,9.74
2022-10-13T21:38:45.015Z,9.74
2022-10-13T21:40:17.156Z,9.67
2022-10-13T21:41:49.197Z,9.67
2022-10-13T21:43:21.234Z,9.68
2022-10-13T21:44:53.638Z,9.67
2022-10-13T21:46:28.188Z,9.69
2022-10-13T21:48:00.241Z,9.63
2022-10-13T21:49:32.376Z,9.61
2022-10-13T21:51:15.381Z,9.63
2022-10-13T21:52:47.301Z,9.58
2022-10-13T21:54:19.478Z,9.57
2022-10-13T21:55:52.240Z,9.58
2022-10-13T21:57:24.917Z,9.58
2022-10-13T21:58:57.037Z,9.57
2022-10-13T22:00:32.085Z,9.57
2022-10-13T22:02:04.159Z,9.49
2022-10-13T22:03:36.335Z,9.47
2022-10-13T22:05:08.464Z,9.49
2022-10-13T22:06:40.509Z,9.50
2022-10-13T22:08:12.535Z,9.48
2022-10-13T22:09:44.511Z,9.46
2022-10-13T22:11:17.363Z,9.46
2022-10-13T22:12:49.379Z,9.42
2022-10-13T22:16:06.855Z,9.40
2022-10-13T22:17:38.904Z,9.33
2022-10-13T22:19:11.209Z,9.34
2022-10-13T22:20:43.162Z,9.34
2022-10-13T22:22:16.264Z,9.31
2022-10-13T22:23:48.881Z,9.29
2022-10-13T22:25:20.873Z,9.26
2022-10-13T22:26:52.860Z,9.26
2022-10-13T22:28:25.400Z,9.25
2022-10-13T22:29:57.624Z,9.21
2022-10-13T22:31:30.917Z,9.20
2022-10-13T22:33:02.900Z,9.18
2022-10-13T22:34:34.877Z,9.17
2022-10-13T22:36:09.219Z,9.20
2022-10-13T22:37:41.138Z,9.17
2022-10-13T22:39:13.625Z,9.20
2022-10-13T22:40:45.568Z,9.19
2022-10-13T22:42:17.617Z,9.20
2022-10-13T22:43:51.425Z,9.16
2022-10-13T22:45:26.411Z,9.13
2022-10-13T22:46:58.445Z,9.11
2022-10-13T22:48:30.567Z,9.09
2022-10-13T22:50:02.641Z,9.07
2022-10-13T22:51:35.868Z,9.07
2022-10-13T22:53:07.853Z,9.02
2022-10-13T22:54:39.821Z,9.00
2022-10-13T22:56:14.155Z,9.02
2022-10-13T22:57:46.179Z,8.98
2022-10-13T22:59:18.332Z,9.00
2022-10-13T23:00:50.294Z,8.99
2022-10-13T23:02:22.214Z,8.98
2022-10-13T23:03:55.969Z,8.99
2022-10-13T23:05:28.123Z,8.97
2022-10-13T23:07:00.123Z,8.99
2022-10-13T23:08:32.279Z,8.98
2022-10-13T23:10:04.653Z,9.00
2022-10-13T23:11:36.796Z,9.01
2022-10-13T23:13:08.791Z,9.01
2022-10-13T23:14:40.801Z,9.02
2022-10-13T23:16:24.133Z,9.06
2022-10-13T23:19:29.048Z,9.02
2022-10-13T23:21:05.171Z,9.05
2022-10-13T23:22:37.096Z,9.01
2022-10-13T23:24:11.131Z,9.04
2022-10-13T23:25:43.067Z,9.01
2022-10-13T23:27:15.199Z,9.01
2022-10-13T23:28:47.220Z,9.03
2022-10-13T23:30:19.234Z,9.01
2022-10-13T23:31:54.227Z,8.99
2022-10-13T23:33:26.363Z,8.93
2022-10-13T23:34:58.406Z,8.90
2022-10-13T23:36:32.384Z,8.90
2022-10-13T23:38:04.357Z,8.83
2022-10-13T23:39:36.595Z,8.82
2022-10-13T23:41:11.255Z,8.79
2022-10-13T23:42:43.207Z,8.74
2022-10-13T23:44:15.191Z,8.71
2022-10-13T23:45:50.590Z,8.71
2022-10-13T23:47:23.005Z,8.69
2022-10-13T23:48:55.606Z,8.71
2022-10-13T23:50:27.573Z,8.74
2022-10-13T23:51:59.555Z,8.73
2022-10-13T23:53:34.959Z,8.74
2022-10-13T23:55:07.157Z,8.74
2022-10-13T23:56:39.278Z,8.72
2022-10-13T23:58:11.630Z,8.73
2022-10-13T23:59:43.594Z,8.73
